Time;durP1;ratioP1;P1;durP2;ratioP2;P2;SDS_P1;SDS_P2;PMS_P1;PMS_P2;Temp;Humidity;BMP_temperature;BMP_pressure;BME280_temperature;BME280_humidity;BME280_pressure;Samples;Min_cycle;Max_cycle;Signal;HPM_P1;HPM_P2
2023/05/05 00:00:07;;;;;;;3.70;2.30;;;15.10;75.00;;;;;;5101987;28;20740;-70
2023/05/05 00:02:34;;;;;;;3.63;3.07;;;15.00;76.40;;;;;;5099436;28;20674;-70
2023/05/05 00:05:01;;;;;;;3.80;3.00;;;14.90;77.00;;;;;;5096979;28;21543;-70
2023/05/05 00:07:30;;;;;;;4.30;3.17;;;14.90;77.20;;;;;;5096245;28;20648;-69
2023/05/05 00:09:56;;;;;;;5.60;3.00;;;14.60;79.90;;;;;;5107148;28;20628;-70
2023/05/05 00:12:23;;;;;;;4.67;3.33;;;14.60;80.20;;;;;;5098258;28;20667;-70
2023/05/05 00:14:50;;;;;;;3.47;2.70;;;14.50;80.60;;;;;;5091687;28;20666;-70
2023/05/05 00:17:17;;;;;;;3.67;2.97;;;14.50;80.80;;;;;;5105746;28;20665;-69
2023/05/05 00:19:43;;;;;;;5.77;3.30;;;14.50;80.70;;;;;;5106456;28;20631;-70
2023/05/05 00:22:10;;;;;;;5.93;3.20;;;14.50;80.30;;;;;;5105410;28;20666;-70
2023/05/05 00:24:38;;;;;;;3.23;3.03;;;14.60;80.10;;;;;;5087522;28;21151;-69
2023/05/05 00:27:05;;;;;;;4.47;4.07;;;14.50;80.10;;;;;;5092948;28;20745;-70
2023/05/05 00:29:32;;;;;;;3.00;2.70;;;14.50;79.70;;;;;;5088078;28;20639;-70
2023/05/05 00:31:59;;;;;;;5.23;3.23;;;14.50;79.70;;;;;;5094287;28;20678;-70
2023/05/05 00:34:25;;;;;;;3.30;2.80;;;14.50;80.50;;;;;;5090694;28;20638;-70
2023/05/05 00:36:52;;;;;;;3.50;3.20;;;14.40;81.80;;;;;;5087584;28;20662;-70
2023/05/05 00:39:19;;;;;;;4.80;2.97;;;14.30;82.40;;;;;;5104434;28;20687;-69
2023/05/05 00:41:47;;;;;;;3.70;3.00;;;14.20;83.50;;;;;;5100467;28;21264;-69
2023/05/05 00:44:14;;;;;;;3.63;3.33;;;14.30;84.10;;;;;;5107448;28;20619;-70
2023/05/05 00:46:42;;;;;;;4.67;3.13;;;14.30;83.30;;;;;;5107532;28;21006;-70
2023/05/05 00:49:09;;;;;;;5.00;2.93;;;14.30;82.70;;;;;;5106496;28;20631;-70
2023/05/05 00:51:36;;;;;;;4.23;3.33;;;14.30;83.30;;;;;;5110014;28;21060;-70
2023/05/05 00:54:05;;;;;;;2.83;2.63;;;14.20;84.60;;;;;;5106066;27;20621;-69
2023/05/05 00:56:32;;;;;;;2.57;2.33;;;14.20;83.40;;;;;;5092078;28;20672;-70
2023/05/05 00:59:00;;;;;;;3.63;3.07;;;14.30;83.60;;;;;;5098239;28;20626;-69
2023/05/05 01:01:27;;;;;;;3.87;3.57;;;14.20;84.00;;;;;;5109056;27;21309;-69
2023/05/05 01:03:54;;;;;;;3.80;2.87;;;14.20;84.90;;;;;;5099737;28;20662;-69
2023/05/05 01:06:35;;;;;;;3.10;2.80;;;14.20;85.00;;;;;;5105051;28;20655;-69
2023/05/05 01:09:07;;;;;;;3.40;3.07;;;14.10;85.70;;;;;;5110326;28;20748;-69
2023/05/05 01:11:44;;;;;;;5.23;3.10;;;14.00;86.60;;;;;;5102647;28;20762;-70
2023/05/05 01:14:16;;;;;;;6.10;3.30;;;14.00;87.40;;;;;;5111363;28;20623;-70
2023/05/05 01:16:55;;;;;;;4.63;3.40;;;14.00;86.60;;;;;;5110792;28;20678;-69
2023/05/05 01:19:51;;;;;;;3.53;2.53;;;14.00;86.50;;;;;;5109623;28;20631;-70
2023/05/05 01:22:22;;;;;;;3.83;3.43;;;14.00;87.00;;;;;;5105112;28;20660;-69
2023/05/05 01:25:26;;;;;;;3.60;2.20;;;14.00;86.40;;;;;;5111038;28;20638;-70
2023/05/05 01:28:25;;;;;;;4.50;3.30;;;14.00;86.80;;;;;;5094634;28;20642;-69
2023/05/05 01:31:23;;;;;;;5.77;3.40;;;13.90;86.50;;;;;;5106429;28;20696;-71
2023/05/05 01:33:58;;;;;;;2.60;2.33;;;13.90;86.90;;;;;;5081280;28;21246;-70
2023/05/05 01:36:32;;;;;;;2.97;2.77;;;13.80;88.10;;;;;;5099003;28;20669;-70
2023/05/05 01:39:03;;;;;;;3.57;3.27;;;13.80;88.70;;;;;;5104406;28;20999;-70
2023/05/05 01:41:37;;;;;;;3.47;2.87;;;13.90;87.80;;;;;;5109850;28;20672;-70
2023/05/05 01:44:07;;;;;;;3.17;2.53;;;13.80;89.60;;;;;;5097181;28;20741;-70
2023/05/05 01:46:36;;;;;;;3.00;2.67;;;13.80;88.40;;;;;;5090375;28;20662;-70
2023/05/05 01:49:06;;;;;;;3.40;3.10;;;13.70;89.20;;;;;;5100458;28;20662;-70
2023/05/05 01:51:35;;;;;;;4.30;3.23;;;13.80;88.60;;;;;;5093511;28;20655;-70
2023/05/05 01:54:07;;;;;;;5.23;3.33;;;13.90;88.40;;;;;;5090446;28;20630;-70
2023/05/05 01:56:37;;;;;;;3.23;2.67;;;13.80;88.60;;;;;;5108795;28;21003;-71
2023/05/05 01:59:06;;;;;;;3.80;2.80;;;13.80;88.80;;;;;;5107684;28;20643;-70
2023/05/05 02:01:37;;;;;;;4.20;3.10;;;13.80;89.10;;;;;;5105015;28;20652;-70
2023/05/05 02:04:08;;;;;;;5.63;3.60;;;13.70;89.50;;;;;;5091068;28;20626;-70
2023/05/05 02:06:36;;;;;;;3.37;3.07;;;13.60;89.50;;;;;;5109385;28;20996;-70
2023/05/05 02:09:03;;;;;;;4.17;3.10;;;13.60;89.80;;;;;;5104239;28;20653;-70
2023/05/05 02:11:31;;;;;;;5.53;4.40;;;13.50;89.70;;;;;;5099452;28;20642;-70
2023/05/05 02:14:00;;;;;;;3.57;2.80;;;13.60;89.70;;;;;;5107184;28;20619;-70
2023/05/05 02:16:29;;;;;;;4.40;3.30;;;13.60;89.80;;;;;;5099591;28;20999;-70
2023/05/05 02:18:58;;;;;;;3.07;2.73;;;13.50;91.00;;;;;;5097696;28;20746;-70
2023/05/05 02:21:27;;;;;;;4.20;3.23;;;13.50;90.80;;;;;;5104851;28;20661;-70
2023/05/05 02:23:55;;;;;;;3.90;3.00;;;13.60;90.90;;;;;;5100843;28;20634;-70
2023/05/05 02:26:25;;;;;;;3.30;3.03;;;13.50;90.90;;;;;;5091690;28;21105;-70
2023/05/05 02:29:00;;;;;;;2.97;2.67;;;13.50;91.60;;;;;;5099568;28;20635;-70
2023/05/05 02:31:30;;;;;;;4.30;3.27;;;13.40;91.40;;;;;;5108173;28;20761;-70
2023/05/05 02:34:01;;;;;;;4.37;3.40;;;13.50;91.00;;;;;;5109558;28;20645;-70
2023/05/05 02:36:32;;;;;;;3.27;2.97;;;13.50;91.10;;;;;;5108780;28;20796;-70
2023/05/05 02:39:03;;;;;;;4.30;3.63;;;13.50;90.90;;;;;;5106814;28;21153;-70
2023/05/05 02:41:33;;;;;;;3.60;3.30;;;13.50;90.80;;;;;;5094535;28;20684;-70
2023/05/05 02:44:03;;;;;;;3.80;3.40;;;13.50;91.60;;;;;;5101905;28;20627;-70
2023/05/05 02:46:31;;;;;;;5.70;4.50;;;13.40;91.20;;;;;;5104261;28;20665;-70
2023/05/05 02:48:59;;;;;;;3.90;3.20;;;13.40;91.20;;;;;;5088428;28;20614;-70
2023/05/05 02:51:27;;;;;;;3.43;3.13;;;13.40;91.50;;;;;;5102382;28;21100;-70
2023/05/05 02:53:56;;;;;;;4.30;3.67;;;13.30;91.40;;;;;;5095590;28;20671;-70
2023/05/05 02:56:32;;;;;;;3.13;2.87;;;13.30;91.70;;;;;;5103174;28;20671;-70
2023/05/05 02:59:07;;;;;;;3.57;2.77;;;13.30;92.60;;;;;;5107009;28;20622;-70
2023/05/05 03:01:47;;;;;;;4.00;3.57;;;13.20;92.80;;;;;;5102790;28;20852;-70
2023/05/05 03:04:18;;;;;;;4.10;3.70;;;13.20;92.70;;;;;;5088152;28;20654;-70
2023/05/05 03:06:50;;;;;;;3.53;3.23;;;13.20;92.90;;;;;;5104277;28;20668;-70
2023/05/05 03:09:25;;;;;;;5.20;2.30;;;13.20;93.00;;;;;;5088944;28;20722;-70
2023/05/05 03:12:00;;;;;;;3.77;2.60;;;13.10;93.50;;;;;;5099611;28;20686;-70
2023/05/05 03:14:34;;;;;;;4.90;3.47;;;13.10;93.50;;;;;;5088118;28;20699;-70
2023/05/05 03:17:02;;;;;;;5.20;3.83;;;13.20;93.70;;;;;;5105225;28;21024;-70
2023/05/05 03:19:30;;;;;;;3.10;2.80;;;13.20;93.90;;;;;;5090605;28;20676;-70
2023/05/05 03:21:57;;;;;;;4.00;2.50;;;13.20;93.50;;;;;;5106905;28;20657;-70
2023/05/05 03:24:25;;;;;;;3.10;2.83;;;13.20;93.80;;;;;;5105920;28;20783;-70
2023/05/05 03:26:52;;;;;;;2.60;2.30;;;13.30;93.90;;;;;;5108406;28;20655;-70
2023/05/05 03:29:19;;;;;;;3.00;2.50;;;13.30;93.90;;;;;;5089777;28;20993;-70
2023/05/05 03:31:46;;;;;;;2.97;2.67;;;13.40;94.00;;;;;;5091630;28;20673;-70
2023/05/05 03:34:13;;;;;;;3.23;2.37;;;13.40;94.10;;;;;;5101159;28;20974;-70
2023/05/05 03:36:40;;;;;;;3.60;2.40;;;13.40;94.10;;;;;;5107349;28;20699;-70
2023/05/05 03:39:07;;;;;;;3.40;2.23;;;13.50;94.30;;;;;;5107279;28;20733;-70
2023/05/05 03:41:35;;;;;;;3.10;2.10;;;13.50;94.70;;;;;;5105558;28;20715;-70
2023/05/05 03:44:02;;;;;;;2.90;2.27;;;13.60;94.50;;;;;;5088226;28;20623;-70
2023/05/05 03:46:28;;;;;;;3.40;2.60;;;13.60;94.50;;;;;;5095286;28;20662;-70
2023/05/05 03:48:55;;;;;;;2.30;2.10;;;13.60;94.80;;;;;;5106579;28;20626;-70
2023/05/05 03:51:23;;;;;;;1.90;1.70;;;13.60;94.80;;;;;;5096996;28;20771;-70
2023/05/05 03:53:50;;;;;;;2.60;1.87;;;13.60;94.90;;;;;;5096347;28;20623;-70
2023/05/05 03:56:17;;;;;;;2.37;2.17;;;13.70;95.00;;;;;;5087458;28;20670;-70
2023/05/05 03:58:45;;;;;;;2.97;2.00;;;13.70;94.80;;;;;;5100955;28;20709;-70
2023/05/05 04:01:12;;;;;;;2.87;2.20;;;13.70;94.70;;;;;;5093780;28;20655;-70
2023/05/05 04:03:39;;;;;;;2.63;2.10;;;13.70;94.90;;;;;;5097215;28;20629;-70
2023/05/05 04:06:06;;;;;;;3.73;2.67;;;13.80;95.40;;;;;;5096696;28;20661;-70
2023/05/05 04:08:32;;;;;;;2.93;2.63;;;13.80;95.40;;;;;;5087256;28;21455;-70
2023/05/05 04:11:01;;;;;;;3.10;2.47;;;13.80;95.10;;;;;;5087588;28;20775;-70
2023/05/05 04:13:28;;;;;;;3.70;2.80;;;13.90;94.90;;;;;;5098391;28;20619;-70
2023/05/05 04:15:56;;;;;;;2.40;2.20;;;14.00;95.00;;;;;;5087575;28;20660;-70
2023/05/05 04:18:23;;;;;;;2.27;2.10;;;14.00;94.90;;;;;;5094998;28;20673;-70
2023/05/05 04:20:49;;;;;;;2.43;2.23;;;14.00;94.90;;;;;;5090546;28;21086;-70
2023/05/05 04:23:16;;;;;;;3.20;2.50;;;14.10;94.70;;;;;;5110927;28;20623;-70
2023/05/05 04:25:43;;;;;;;2.70;2.50;;;14.10;94.60;;;;;;5104024;28;20670;-70
2023/05/05 04:28:10;;;;;;;2.23;1.93;;;14.20;95.10;;;;;;5095389;28;20977;-69
2023/05/05 04:30:37;;;;;;;2.57;2.37;;;14.20;95.40;;;;;;5099898;28;20659;-70
2023/05/05 04:33:06;;;;;;;2.90;2.67;;;14.20;95.40;;;;;;5097654;28;20630;-70
2023/05/05 04:35:32;;;;;;;3.00;2.70;;;14.30;95.30;;;;;;5111589;28;20972;-70
2023/05/05 04:37:59;;;;;;;2.40;2.20;;;14.30;95.10;;;;;;5100009;28;20730;-70
2023/05/05 04:40:26;;;;;;;3.03;2.47;;;14.30;95.80;;;;;;5095940;28;20662;-70
2023/05/05 04:42:53;;;;;;;1.47;1.37;;;14.40;96.50;;;;;;5106132;28;20639;-70
2023/05/05 04:45:20;;;;;;;2.80;2.37;;;14.40;96.40;;;;;;5109364;28;20629;-69
2023/05/05 04:47:47;;;;;;;6.50;2.70;;;14.40;95.80;;;;;;5095661;28;20637;-70
2023/05/05 04:50:15;;;;;;;3.57;2.60;;;14.50;96.00;;;;;;5110509;28;20697;-70
2023/05/05 04:52:42;;;;;;;3.63;1.70;;;14.50;95.70;;;;;;5090254;28;20729;-69
2023/05/05 04:55:10;;;;;;;3.13;2.47;;;14.60;96.00;;;;;;5091063;28;20658;-69
2023/05/05 04:57:37;;;;;;;2.77;2.17;;;14.60;96.20;;;;;;5091321;28;20663;-69
2023/05/05 05:00:05;;;;;;;2.50;2.30;;;14.70;96.80;;;;;;5107462;28;21162;-69
2023/05/05 05:02:32;;;;;;;2.27;2.00;;;14.70;96.00;;;;;;5110294;28;20631;-69
2023/05/05 05:04:58;;;;;;;1.93;1.83;;;14.70;96.10;;;;;;5111146;28;20630;-71
2023/05/05 05:07:26;;;;;;;3.13;2.50;;;14.80;96.40;;;;;;5099243;27;20672;-72
2023/05/05 05:09:53;;;;;;;2.93;2.07;;;14.80;96.80;;;;;;5099395;28;20616;-70
2023/05/05 05:12:20;;;;;;;2.27;2.07;;;14.80;96.40;;;;;;5102607;28;20660;-71
2023/05/05 05:14:47;;;;;;;2.20;2.10;;;14.90;97.10;;;;;;5092014;28;21200;-71
2023/05/05 05:17:14;;;;;;;3.00;2.67;;;14.90;97.20;;;;;;5105765;28;20663;-72
2023/05/05 05:19:41;;;;;;;3.77;2.40;;;14.90;97.60;;;;;;5104987;28;20627;-72
2023/05/05 05:22:08;;;;;;;1.77;1.63;;;15.00;97.60;;;;;;5111203;28;20720;-72
2023/05/05 05:24:36;;;;;;;2.40;2.20;;;15.00;96.90;;;;;;5106424;28;20664;-71
2023/05/05 05:27:06;;;;;;;3.77;2.73;;;15.10;97.70;;;;;;5098312;28;20643;-72
2023/05/05 05:29:33;;;;;;;3.10;2.10;;;15.10;96.90;;;;;;5094638;27;20660;-71
2023/05/05 05:32:00;;;;;;;2.20;1.80;;;15.10;96.00;;;;;;5102955;28;20658;-72
2023/05/05 05:34:27;;;;;;;2.77;2.57;;;15.20;96.50;;;;;;5095868;27;20729;-72
2023/05/05 05:36:53;;;;;;;2.03;1.80;;;15.20;96.00;;;;;;5090026;28;20680;-72
2023/05/05 05:39:20;;;;;;;2.10;1.90;;;15.30;96.10;;;;;;5089942;28;20613;-72
2023/05/05 05:41:48;;;;;;;2.03;1.60;;;15.40;96.60;;;;;;5099364;28;20667;-72
2023/05/05 05:44:15;;;;;;;1.40;1.30;;;15.50;97.50;;;;;;5095843;28;20625;-72
2023/05/05 05:46:42;;;;;;;2.30;2.10;;;15.60;96.60;;;;;;5092033;28;20664;-72
2023/05/05 05:49:08;;;;;;;2.70;2.10;;;15.70;96.70;;;;;;5106151;28;20638;-72
2023/05/05 05:51:35;;;;;;;2.30;2.10;;;15.90;95.90;;;;;;5097226;28;20651;-71
2023/05/05 05:54:02;;;;;;;2.73;1.93;;;16.00;95.90;;;;;;5100714;28;20641;-72
2023/05/05 05:56:29;;;;;;;2.00;1.90;;;16.10;95.40;;;;;;5105039;28;20691;-72
2023/05/05 05:58:57;;;;;;;1.83;1.73;;;16.30;94.40;;;;;;5104298;28;20730;-72
2023/05/05 06:01:24;;;;;;;1.77;1.67;;;16.40;94.40;;;;;;5098195;28;20644;-71
2023/05/05 06:03:51;;;;;;;1.97;1.50;;;16.50;93.70;;;;;;5091387;28;20642;-72
2023/05/05 06:06:18;;;;;;;2.17;1.93;;;16.50;94.10;;;;;;5100954;28;20703;-72
2023/05/05 06:08:45;;;;;;;1.90;1.80;;;16.60;93.90;;;;;;5109338;28;20630;-72
2023/05/05 06:11:12;;;;;;;2.03;1.70;;;16.60;94.00;;;;;;5096128;28;20659;-72
2023/05/05 06:13:38;;;;;;;1.83;1.73;;;16.60;94.30;;;;;;5088366;28;20641;-72
2023/05/05 06:16:07;;;;;;;1.80;1.70;;;16.60;94.40;;;;;;5108995;28;20661;-72
2023/05/05 06:18:34;;;;;;;2.83;2.07;;;16.60;95.10;;;;;;5096057;28;20727;-71
2023/05/05 06:21:01;;;;;;;2.40;1.90;;;16.70;95.40;;;;;;5108170;28;20661;-72
2023/05/05 06:23:30;;;;;;;1.67;1.43;;;16.70;94.80;;;;;;5095347;28;20680;-72
2023/05/05 06:25:57;;;;;;;1.57;1.47;;;16.80;94.50;;;;;;5097415;28;20667;-72
2023/05/05 06:28:24;;;;;;;1.20;1.10;;;16.90;93.60;;;;;;5089488;28;21052;-72
2023/05/05 06:30:51;;;;;;;1.87;1.77;;;17.00;95.00;;;;;;5107345;28;20692;-72
2023/05/05 06:33:19;;;;;;;2.07;1.87;;;17.00;93.20;;;;;;5093846;28;20630;-71
2023/05/05 06:35:48;;;;;;;5.90;1.63;;;17.10;92.60;;;;;;5089335;28;21246;-71
2023/05/05 06:38:15;;;;;;;2.00;1.83;;;17.20;92.70;;;;;;5096919;28;20663;-71
2023/05/05 06:40:42;;;;;;;1.60;1.50;;;17.30;92.40;;;;;;5093979;28;20655;-72
2023/05/05 06:43:08;;;;;;;1.87;1.63;;;17.40;91.80;;;;;;5107673;28;20622;-72
2023/05/05 06:45:35;;;;;;;1.67;1.40;;;17.50;92.60;;;;;;5093669;28;20658;-72
2023/05/05 06:48:02;;;;;;;1.70;1.60;;;17.50;92.70;;;;;;5100864;28;20631;-72
2023/05/05 06:50:30;;;;;;;1.47;1.37;;;17.60;92.00;;;;;;5101165;28;20651;-72
2023/05/05 06:52:57;;;;;;;1.83;1.60;;;17.60;91.60;;;;;;5094660;28;20630;-72
2023/05/05 06:55:24;;;;;;;1.30;1.17;;;17.60;91.90;;;;;;5088990;28;20642;-71
2023/05/05 06:57:51;;;;;;;1.60;1.50;;;17.70;92.40;;;;;;5092249;28;20675;-71
2023/05/05 07:00:18;;;;;;;1.73;1.40;;;17.70;92.70;;;;;;5098876;28;21199;-71
2023/05/05 07:02:46;;;;;;;1.90;1.27;;;17.80;92.20;;;;;;5099351;28;20630;-71
2023/05/05 07:05:13;;;;;;;1.53;1.43;;;17.80;91.20;;;;;;5104951;27;20985;-71
2023/05/05 07:07:51;;;;;;;4.10;1.70;;;17.80;91.50;;;;;;5091944;28;21069;-71
2023/05/05 07:10:18;;;;;;;1.53;1.43;;;17.70;91.90;;;;;;5102552;28;20620;-71
2023/05/05 07:12:45;;;;;;;2.50;1.73;;;17.80;91.50;;;;;;5088918;28;20643;-71
2023/05/05 07:15:12;;;;;;;1.27;1.17;;;17.80;92.90;;;;;;5100512;28;20618;-71
2023/05/05 07:17:39;;;;;;;1.53;1.40;;;17.70;91.40;;;;;;5091862;28;20651;-71
2023/05/05 07:20:07;;;;;;;2.00;1.63;;;17.70;91.20;;;;;;5099628;28;20973;-72
2023/05/05 07:22:34;;;;;;;2.10;1.83;;;17.80;91.70;;;;;;5099045;28;20635;-72
2023/05/05 07:25:03;;;;;;;2.47;1.87;;;17.80;91.40;;;;;;5104446;28;20726;-72
2023/05/05 07:27:31;;;;;;;2.50;2.23;;;17.90;91.80;;;;;;5107077;28;21191;-72
2023/05/05 07:29:58;;;;;;;2.20;1.50;;;17.90;91.00;;;;;;5105575;28;20616;-72
2023/05/05 07:32:25;;;;;;;1.60;1.50;;;17.90;91.20;;;;;;5101607;28;20670;-72
2023/05/05 07:34:52;;;;;;;1.80;1.70;;;17.90;90.80;;;;;;5106948;28;20658;-72
2023/05/05 07:37:19;;;;;;;1.97;1.73;;;17.90;91.00;;;;;;5102642;28;20667;-72
2023/05/05 07:39:47;;;;;;;1.40;1.30;;;17.90;91.00;;;;;;5093552;28;20624;-72
2023/05/05 07:42:15;;;;;;;2.33;1.97;;;17.90;92.30;;;;;;5096494;28;20763;-72
2023/05/05 07:44:42;;;;;;;2.13;1.20;;;17.80;91.40;;;;;;5108176;28;20623;-72
2023/05/05 07:47:09;;;;;;;1.80;1.70;;;17.70;91.00;;;;;;5101124;28;20660;-72
2023/05/05 07:49:36;;;;;;;1.60;1.50;;;17.80;92.70;;;;;;5099080;28;20613;-72
2023/05/05 07:52:02;;;;;;;2.27;2.10;;;17.70;92.20;;;;;;5097864;27;20661;-72
2023/05/05 07:54:29;;;;;;;0.90;0.90;;;17.70;92.90;;;;;;5100585;28;20734;-72
2023/05/05 07:56:57;;;;;;;2.00;1.43;;;17.60;93.40;;;;;;5099993;28;20660;-72
2023/05/05 07:59:25;;;;;;;1.70;1.60;;;17.50;93.20;;;;;;5099800;28;20623;-72
2023/05/05 08:01:52;;;;;;;2.00;1.50;;;17.50;94.90;;;;;;5094236;28;21303;-72
2023/05/05 08:04:18;;;;;;;2.37;1.50;;;17.40;96.10;;;;;;5096837;28;20716;-72
2023/05/05 08:06:45;;;;;;;1.70;1.60;;;17.30;97.60;;;;;;5095204;28;20649;-72
2023/05/05 08:09:12;;;;;;;1.77;1.67;;;17.20;98.10;;;;;;5088254;28;20681;-72
2023/05/05 08:11:39;;;;;;;1.90;1.70;;;17.20;98.50;;;;;;5088927;28;20683;-72
2023/05/05 08:14:07;;;;;;;1.83;1.70;;;17.10;98.40;;;;;;5088576;28;21021;-72
2023/05/05 08:16:35;;;;;;;2.10;1.90;;;17.10;99.90;;;;;;5089505;28;21010;-72
2023/05/05 08:19:02;;;;;;;2.33;1.70;;;17.00;99.90;;;;;;5094007;28;20671;-72
2023/05/05 08:21:30;;;;;;;2.50;2.30;;;17.00;99.90;;;;;;5106307;28;20655;-72
2023/05/05 08:23:57;;;;;;;1.67;1.57;;;16.90;99.90;;;;;;5095726;28;21062;-72
2023/05/05 08:26:27;;;;;;;1.60;1.10;;;16.90;99.90;;;;;;5107535;28;20656;-72
2023/05/05 08:28:59;;;;;;;1.67;1.40;;;16.80;99.90;;;;;;5097423;28;20642;-72
2023/05/05 08:31:26;;;;;;;1.87;1.53;;;16.90;99.90;;;;;;5087275;28;21211;-72
2023/05/05 08:33:54;;;;;;;2.87;1.70;;;16.90;99.90;;;;;;5091416;28;20627;-73
2023/05/05 08:36:21;;;;;;;1.83;1.73;;;17.00;99.60;;;;;;5103095;28;20658;-72
2023/05/05 08:38:48;;;;;;;2.03;1.90;;;17.00;98.60;;;;;;5106171;28;20972;-73
2023/05/05 08:41:18;;;;;;;1.60;1.50;;;17.20;98.70;;;;;;5099670;28;20650;-72
2023/05/05 08:43:47;;;;;;;1.73;1.63;;;17.20;98.30;;;;;;5106919;28;20738;-72
2023/05/05 08:46:14;;;;;;;2.00;1.80;;;17.20;98.30;;;;;;5106082;28;21083;-72
2023/05/05 08:48:42;;;;;;;2.10;1.90;;;17.40;98.60;;;;;;5106306;28;20739;-72
2023/05/05 08:51:16;;;;;;;1.83;1.37;;;17.40;98.50;;;;;;5102575;28;20647;-72
2023/05/05 08:53:56;;;;;;;2.07;1.80;;;17.40;99.50;;;;;;5093668;28;20713;-72
2023/05/05 08:56:26;;;;;;;2.57;1.47;;;17.40;98.10;;;;;;5101915;28;20650;-72
2023/05/05 08:58:53;;;;;;;2.07;1.97;;;17.50;98.10;;;;;;5098697;28;20668;-72
2023/05/05 09:01:20;;;;;;;4.80;2.20;;;17.50;98.20;;;;;;5096937;28;20671;-72
2023/05/05 09:03:47;;;;;;;2.00;1.47;;;17.60;97.70;;;;;;5097357;28;20633;-72
2023/05/05 09:06:16;;;;;;;2.10;1.90;;;17.70;97.70;;;;;;5097795;28;21250;-72
2023/05/05 09:08:43;;;;;;;2.67;2.47;;;17.70;97.60;;;;;;5088131;28;20628;-72
2023/05/05 09:11:10;;;;;;;1.53;1.43;;;17.70;97.70;;;;;;5092431;28;20654;-72
2023/05/05 09:13:37;;;;;;;2.27;1.90;;;17.80;97.80;;;;;;5092289;28;20711;-72
2023/05/05 09:16:04;;;;;;;3.67;2.53;;;17.90;97.80;;;;;;5090928;28;20652;-72
2023/05/05 09:18:30;;;;;;;1.70;1.60;;;18.00;97.20;;;;;;5091460;28;21080;-72
2023/05/05 09:20:58;;;;;;;2.70;2.40;;;18.20;96.70;;;;;;5095845;28;21088;-72
2023/05/05 09:23:26;;;;;;;1.67;1.37;;;18.30;96.80;;;;;;5098217;28;20669;-72
2023/05/05 09:26:04;;;;;;;3.73;2.20;;;18.30;95.80;;;;;;5110965;28;20782;-72
2023/05/05 09:28:31;;;;;;;1.63;1.53;;;18.20;96.30;;;;;;5099155;28;20680;-72
2023/05/05 09:31:12;;;;;;;2.67;2.47;;;18.30;95.70;;;;;;5090527;28;20656;-72
2023/05/05 09:33:39;;;;;;;1.80;1.70;;;18.50;95.90;;;;;;5090943;28;20938;-72
2023/05/05 09:36:06;;;;;;;5.03;1.90;;;18.60;95.00;;;;;;5091549;28;21222;-73
2023/05/05 09:38:35;;;;;;;1.93;1.83;;;18.60;94.80;;;;;;5105211;28;20659;-72
2023/05/05 09:41:04;;;;;;;1.90;1.77;;;18.60;94.70;;;;;;5110885;28;20652;-72
2023/05/05 09:43:48;;;;;;;2.80;2.37;;;18.70;94.70;;;;;;5109482;28;20639;-72
2023/05/05 09:46:18;;;;;;;2.00;1.83;;;18.80;94.60;;;;;;5109856;28;20656;-72
2023/05/05 09:48:45;;;;;;;1.57;1.47;;;19.00;95.30;;;;;;5100806;28;20724;-72
2023/05/05 09:51:12;;;;;;;1.70;1.60;;;19.10;94.30;;;;;;5096851;28;21070;-72
2023/05/05 09:53:41;;;;;;;2.73;2.47;;;19.30;94.20;;;;;;5102167;28;20626;-72
2023/05/05 09:56:09;;;;;;;1.70;1.60;;;19.30;94.30;;;;;;5110990;27;21080;-72
2023/05/05 09:58:35;;;;;;;2.60;1.90;;;19.30;93.70;;;;;;5104347;27;20765;-72
2023/05/05 10:01:02;;;;;;;2.33;1.87;;;19.50;93.40;;;;;;5090051;28;20663;-73
2023/05/05 10:03:29;;;;;;;2.13;2.03;;;19.60;93.00;;;;;;5100742;28;20634;-73
2023/05/05 10:05:59;;;;;;;1.47;1.37;;;19.60;92.20;;;;;;5103834;28;20675;-73
2023/05/05 10:08:29;;;;;;;1.90;1.27;;;19.60;92.20;;;;;;5109203;28;20632;-73
2023/05/05 10:10:59;;;;;;;1.30;1.20;;;19.80;91.40;;;;;;5110503;28;21423;-73
2023/05/05 10:13:27;;;;;;;1.40;1.30;;;19.90;90.70;;;;;;5109355;28;20625;-72
2023/05/05 10:15:55;;;;;;;1.13;1.03;;;19.90;91.20;;;;;;5105813;28;20647;-72
2023/05/05 10:18:24;;;;;;;1.35;1.20;;;19.60;89.50;;;;;;5098841;28;20972;-72
2023/05/05 10:20:56;;;;;;;1.50;1.03;;;19.40;90.50;;;;;;5109579;28;20232;-73
2023/05/05 10:23:24;;;;;;;1.90;1.13;;;19.40;89.70;;;;;;5102610;28;20625;-73
2023/05/05 10:25:55;;;;;;;1.53;1.40;;;19.20;89.90;;;;;;5089169;28;21043;-73
2023/05/05 10:28:31;;;;;;;1.00;0.90;;;19.20;90.30;;;;;;5089809;28;20633;-73
2023/05/05 10:31:00;;;;;;;0.97;0.87;;;19.30;90.10;;;;;;5089605;28;20758;-73
2023/05/05 10:33:33;;;;;;;1.07;0.97;;;19.40;90.00;;;;;;5109979;28;20991;-73
2023/05/05 10:36:02;;;;;;;1.07;1.07;;;19.40;89.30;;;;;;5110323;28;20663;-73
2023/05/05 10:38:30;;;;;;;1.53;1.33;;;19.50;89.20;;;;;;5109028;28;20660;-73
2023/05/05 10:40:59;;;;;;;1.00;1.00;;;19.40;87.10;;;;;;5107770;28;20660;-72
2023/05/05 10:43:28;;;;;;;0.90;0.90;;;19.40;90.50;;;;;;5109392;28;20619;-73
2023/05/05 10:45:59;;;;;;;1.57;1.47;;;19.40;90.10;;;;;;5109726;28;20756;-72
2023/05/05 10:48:33;;;;;;;2.10;1.20;;;19.20;88.90;;;;;;5106363;28;20620;-72
2023/05/05 10:51:11;;;;;;;1.03;1.03;;;19.10;89.70;;;;;;5109147;28;20640;-73
2023/05/05 10:53:44;;;;;;;1.30;1.20;;;19.00;91.00;;;;;;5110369;27;20616;-74
2023/05/05 10:56:17;;;;;;;2.07;1.60;;;18.90;91.90;;;;;;5098707;28;20658;-73
2023/05/05 10:58:46;;;;;;;1.10;1.00;;;18.90;91.90;;;;;;5103445;28;20665;-73
2023/05/05 11:01:27;;;;;;;1.20;1.10;;;19.00;90.80;;;;;;5093584;28;20703;-73
2023/05/05 11:04:18;;;;;;;1.13;1.03;;;19.00;90.60;;;;;;5110022;28;20620;-73
2023/05/05 11:07:26;;;;;;;1.00;1.00;;;19.00;91.30;;;;;;5108583;28;20648;-73
2023/05/05 11:09:57;;;;;;;1.07;1.03;;;19.10;91.20;;;;;;5108955;27;20636;-73
2023/05/05 11:12:24;;;;;;;0.90;0.90;;;19.20;90.80;;;;;;5102735;27;20696;-73
2023/05/05 11:15:32;;;;;;;1.37;1.27;;;19.10;90.90;;;;;;5107652;28;20964;-73
2023/05/05 11:18:01;;;;;;;0.80;0.80;;;19.20;90.30;;;;;;5089119;27;20651;-73
2023/05/05 11:21:14;;;;;;;1.00;1.00;;;19.30;90.20;;;;;;5096683;28;20655;-73
2023/05/05 11:23:42;;;;;;;1.30;1.13;;;19.50;90.10;;;;;;5085099;28;20646;-73
2023/05/05 11:26:09;;;;;;;0.80;0.80;;;19.70;90.10;;;;;;5090157;28;20649;-73
2023/05/05 11:28:55;;;;;;;1.03;0.93;;;19.90;87.00;;;;;;5087850;28;20729;-74
2023/05/05 11:31:22;;;;;;;1.90;1.00;;;20.30;86.40;;;;;;5091382;28;21484;-73
2023/05/05 11:33:51;;;;;;;1.00;1.00;;;20.60;84.60;;;;;;5089845;28;20644;-74
2023/05/05 11:36:19;;;;;;;1.43;1.33;;;21.00;82.20;;;;;;5093203;28;20656;-74
2023/05/05 11:38:58;;;;;;;0.83;0.83;;;21.20;83.20;;;;;;5106815;28;20762;-73
2023/05/05 11:41:56;;;;;;;2.00;1.80;;;21.30;82.00;;;;;;5103322;28;20657;-73
2023/05/05 11:44:30;;;;;;;1.27;1.17;;;21.50;81.50;;;;;;5077778;28;20625;-73
2023/05/05 11:47:31;;;;;;;0.97;0.97;;;21.80;83.40;;;;;;5087935;28;20650;-74
2023/05/05 11:50:16;;;;;;;2.30;1.30;;;22.00;81.90;;;;;;5086051;28;20645;-74
2023/05/05 11:52:43;;;;;;;1.20;1.20;;;22.30;79.00;;;;;;5090010;28;20625;-74
2023/05/05 11:55:10;;;;;;;1.23;1.10;;;22.50;78.60;;;;;;5104022;28;20634;-74
2023/05/05 11:57:37;;;;;;;1.57;1.30;;;22.60;79.30;;;;;;5092187;28;20732;-74
2023/05/05 12:00:06;;;;;;;1.10;1.10;;;22.60;78.60;;;;;;5101048;28;20672;-74
2023/05/05 12:02:33;;;;;;;1.30;1.10;;;22.80;77.00;;;;;;5096794;27;21699;-76
2023/05/05 12:05:02;;;;;;;1.37;1.30;;;23.10;78.30;;;;;;5103786;28;20652;-73
2023/05/05 12:07:31;;;;;;;1.30;1.20;;;23.60;76.30;;;;;;5106700;28;20865;-73
2023/05/05 12:09:58;;;;;;;2.33;1.07;;;23.60;74.70;;;;;;5090139;28;20701;-73
2023/05/05 12:12:36;;;;;;;3.50;1.80;;;23.20;75.40;;;;;;5088477;28;20745;-73
2023/05/05 12:15:04;;;;;;;2.20;1.40;;;22.20;76.70;;;;;;5108306;28;20730;-73
2023/05/05 12:17:43;;;;;;;1.10;1.00;;;21.80;77.40;;;;;;5108555;28;20620;-73
2023/05/05 12:20:12;;;;;;;1.37;1.27;;;21.60;78.80;;;;;;5108221;28;20713;-73
2023/05/05 12:22:39;;;;;;;1.30;1.20;;;21.80;78.70;;;;;;5107884;28;20638;-72
2023/05/05 12:25:08;;;;;;;1.40;1.10;;;21.80;78.50;;;;;;5108913;28;20634;-73
2023/05/05 12:27:35;;;;;;;1.67;1.57;;;21.80;77.80;;;;;;5108673;28;21191;-73
2023/05/05 12:30:13;;;;;;;1.17;1.07;;;21.80;77.60;;;;;;5097824;28;20657;-73
2023/05/05 12:32:40;;;;;;;0.97;0.97;;;21.70;77.60;;;;;;5087766;28;20646;-73
2023/05/05 12:35:08;;;;;;;1.23;1.13;;;21.60;77.00;;;;;;5087408;28;20623;-73
2023/05/05 12:37:36;;;;;;;1.13;1.10;;;21.50;78.50;;;;;;5096291;28;20790;-73
2023/05/05 12:40:05;;;;;;;1.90;0.97;;;21.40;80.10;;;;;;5107495;28;20730;-73
2023/05/05 12:42:32;;;;;;;1.63;1.23;;;21.40;77.70;;;;;;5108152;28;20624;-73
2023/05/05 12:44:58;;;;;;;1.13;1.10;;;21.20;77.90;;;;;;5112490;28;20630;-73
2023/05/05 12:47:33;;;;;;;0.93;0.60;;;21.30;79.90;;;;;;5112011;28;20763;-73
2023/05/05 12:50:02;;;;;;;1.00;0.90;;;21.60;77.90;;;;;;5111787;28;20657;-72
2023/05/05 12:52:42;;;;;;;1.50;1.40;;;22.20;79.20;;;;;;5112638;28;20655;-73
2023/05/05 12:55:10;;;;;;;1.40;1.30;;;22.40;76.50;;;;;;5112063;28;20618;-73
2023/05/05 12:57:37;;;;;;;2.80;1.30;;;22.90;79.50;;;;;;5108439;28;21180;-73
2023/05/05 13:00:15;;;;;;;2.43;1.87;;;23.50;76.30;;;;;;5107395;28;20651;-71